Time;durP1;ratioP1;P1;durP2;ratioP2;P2;SDS_P1;SDS_P2;PMS_P1;PMS_P2;Temp;Humidity;BMP_temperature;BMP_pressure;BME280_temperature;BME280_humidity;BME280_pressure;Samples;Min_cycle;Max_cycle;Signal;HPM_P1;HPM_P2
2023/12/23 00:00:00;;;;;;;0.00;0.00;;;6.60;99.90;;;;;;5069786;28;20116;-70
2023/12/23 00:02:25;;;;;;;0.57;0.38;;;6.60;99.90;;;;;;5064951;28;20060;-70
2023/12/23 00:04:51;;;;;;;0.03;0.03;;;6.50;99.90;;;;;;5070036;28;20035;-71
2023/12/23 00:07:17;;;;;;;0.20;0.20;;;6.50;99.90;;;;;;5055417;28;20053;-70
2023/12/23 00:09:42;;;;;;;1.55;1.08;;;6.40;99.90;;;;;;5063615;28;20483;-68
2023/12/23 00:12:09;;;;;;;0.77;0.28;;;6.40;99.90;;;;;;5066873;28;20483;-68
2023/12/23 00:14:35;;;;;;;0.00;0.00;;;6.40;99.90;;;;;;5068575;28;20518;-69
2023/12/23 00:17:01;;;;;;;0.10;0.10;;;6.40;99.90;;;;;;5057455;28;20044;-70
2023/12/23 00:19:27;;;;;;;0.10;0.10;;;6.40;99.90;;;;;;5064450;28;20043;-71
2023/12/23 00:21:54;;;;;;;0.28;0.28;;;6.30;99.90;;;;;;5062760;28;20594;-67
2023/12/23 00:24:20;;;;;;;1.30;0.63;;;6.40;99.90;;;;;;5060486;28;20407;-69
2023/12/23 00:26:46;;;;;;;0.40;0.40;;;6.30;99.90;;;;;;5068941;28;20479;-68
2023/12/23 00:29:12;;;;;;;0.25;0.20;;;6.30;99.90;;;;;;5066339;28;20089;-70
2023/12/23 00:31:38;;;;;;;0.10;0.10;;;6.40;99.90;;;;;;5059219;28;20581;-68
2023/12/23 00:34:04;;;;;;;4.57;0.85;;;6.30;99.90;;;;;;5059040;28;20037;-69
2023/12/23 00:36:30;;;;;;;0.38;0.38;;;6.30;99.90;;;;;;5058333;28;20059;-69
2023/12/23 00:38:55;;;;;;;0.55;0.55;;;6.30;99.90;;;;;;5067751;28;20048;-69
2023/12/23 00:41:22;;;;;;;0.10;0.10;;;6.30;99.90;;;;;;5054864;28;20043;-71
2023/12/23 00:43:48;;;;;;;0.60;0.55;;;6.30;99.90;;;;;;5089380;28;20045;-70
2023/12/23 00:46:14;;;;;;;0.00;0.00;;;6.30;99.90;;;;;;5056976;28;20131;-68
2023/12/23 00:48:39;;;;;;;0.10;0.10;;;6.30;99.90;;;;;;5054978;28;20135;-69
2023/12/23 00:51:05;;;;;;;2.45;0.47;;;6.40;99.90;;;;;;5057109;28;20029;-69
2023/12/23 00:53:31;;;;;;;0.40;0.40;;;6.50;99.90;;;;;;5054406;28;20037;-70
2023/12/23 00:55:57;;;;;;;0.55;0.50;;;6.50;99.90;;;;;;5053732;28;20151;-70
2023/12/23 00:58:23;;;;;;;9.55;1.17;;;6.50;99.90;;;;;;5054522;28;20064;-69
2023/12/23 01:00:48;;;;;;;5.28;2.83;;;6.50;99.90;;;;;;5058848;28;20126;-71
2023/12/23 01:03:15;;;;;;;1.60;0.30;;;6.50;99.90;;;;;;5054818;28;20040;-69
2023/12/23 01:05:40;;;;;;;1.08;0.20;;;6.50;99.90;;;;;;5060102;28;20375;-70
2023/12/23 01:08:06;;;;;;;0.10;0.10;;;6.60;99.90;;;;;;5087631;28;20043;-70
2023/12/23 01:10:31;;;;;;;0.57;0.20;;;6.60;99.90;;;;;;5086742;28;20049;-69
2023/12/23 01:12:57;;;;;;;2.42;1.42;;;6.60;99.90;;;;;;5061962;28;20030;-69
2023/12/23 01:15:22;;;;;;;1.10;0.65;;;6.60;99.90;;;;;;5062587;28;20044;-68
2023/12/23 01:17:48;;;;;;;2.42;0.17;;;6.60;99.90;;;;;;5061738;28;20029;-68
2023/12/23 01:20:13;;;;;;;0.30;0.30;;;6.70;99.90;;;;;;5065152;28;20058;-68
2023/12/23 01:22:39;;;;;;;0.10;0.10;;;6.70;99.90;;;;;;5057227;28;20041;-69
2023/12/23 01:25:05;;;;;;;0.40;0.25;;;6.70;99.90;;;;;;5061546;28;20039;-69
2023/12/23 01:27:30;;;;;;;5.18;0.32;;;6.70;99.90;;;;;;5089758;27;20487;-69
2023/12/23 01:29:56;;;;;;;0.25;0.15;;;6.70;99.90;;;;;;5054096;28;20033;-70
2023/12/23 01:32:21;;;;;;;0.47;0.47;;;6.60;99.90;;;;;;5056740;28;20041;-70
2023/12/23 01:34:47;;;;;;;0.50;0.43;;;6.60;99.90;;;;;;5059390;28;20029;-68
2023/12/23 01:37:13;;;;;;;0.10;0.10;;;6.60;99.90;;;;;;5063918;28;20540;-71
2023/12/23 01:39:39;;;;;;;4.78;0.47;;;6.50;99.90;;;;;;5042979;28;20041;-70
2023/12/23 01:42:05;;;;;;;0.10;0.10;;;6.50;99.90;;;;;;5061750;28;20068;-70
2023/12/23 01:44:30;;;;;;;0.30;0.30;;;6.50;99.90;;;;;;5060462;28;20045;-70
2023/12/23 01:46:58;;;;;;;9.45;0.30;;;6.50;99.90;;;;;;5062020;28;20071;-69
2023/12/23 01:49:24;;;;;;;0.30;0.30;;;6.50;99.90;;;;;;5059323;28;20091;-69
2023/12/23 01:51:52;;;;;;;0.00;0.00;;;6.50;99.90;;;;;;5059190;28;20037;-69
2023/12/23 01:54:19;;;;;;;0.10;0.10;;;6.60;99.90;;;;;;5052867;28;20094;-70
2023/12/23 01:56:47;;;;;;;0.15;0.15;;;6.60;99.90;;;;;;5071830;28;20024;-69
2023/12/23 01:59:14;;;;;;;1.55;0.55;;;6.60;99.90;;;;;;5068022;28;20057;-71
2023/12/23 02:01:40;;;;;;;0.10;0.10;;;6.60;99.90;;;;;;5062898;28;20434;-69
2023/12/23 02:04:05;;;;;;;8.85;0.28;;;6.50;99.90;;;;;;5057650;28;20040;-70
2023/12/23 02:06:31;;;;;;;0.32;0.32;;;6.50;99.90;;;;;;5095290;28;20091;-72
2023/12/23 02:08:57;;;;;;;3.85;0.50;;;6.50;99.90;;;;;;5063238;28;20550;-71
2023/12/23 02:11:40;;;;;;;0.10;0.10;;;6.50;99.90;;;;;;5062935;28;20112;-72
2023/12/23 02:14:19;;;;;;;4.57;0.30;;;6.40;99.90;;;;;;5090315;27;20032;-69
2023/12/23 02:16:47;;;;;;;0.43;0.30;;;6.40;99.90;;;;;;5054659;28;20044;-71
2023/12/23 02:19:12;;;;;;;0.10;0.10;;;6.40;99.90;;;;;;5057015;28;20044;-72
2023/12/23 02:21:38;;;;;;;0.15;0.15;;;6.40;99.90;;;;;;5042590;28;20041;-69
2023/12/23 02:24:04;;;;;;;3.85;0.10;;;6.40;99.90;;;;;;5047523;28;20041;-70
2023/12/23 02:26:32;;;;;;;0.03;0.03;;;6.40;99.90;;;;;;5060561;28;20229;-70
2023/12/23 02:29:01;;;;;;;0.15;0.15;;;6.50;99.90;;;;;;5054416;28;20162;-69
2023/12/23 02:31:27;;;;;;;0.00;0.00;;;6.40;99.90;;;;;;5088234;28;20064;-69
2023/12/23 02:33:53;;;;;;;0.40;0.13;;;6.30;99.90;;;;;;5058990;28;20029;-69
2023/12/23 02:36:22;;;;;;;0.15;0.15;;;6.20;99.90;;;;;;5057257;28;20368;-68
2023/12/23 02:38:48;;;;;;;0.77;0.05;;;6.20;99.90;;;;;;5057648;28;20029;-66
2023/12/23 02:41:14;;;;;;;0.10;0.10;;;6.10;99.90;;;;;;5051331;28;20048;-68
2023/12/23 02:43:39;;;;;;;0.10;0.10;;;6.10;99.90;;;;;;5057168;28;20115;-68
2023/12/23 02:46:05;;;;;;;0.32;0.32;;;6.10;99.90;;;;;;5056593;28;20559;-66
2023/12/23 02:48:30;;;;;;;0.20;0.13;;;6.00;99.90;;;;;;5054355;28;20040;-67
2023/12/23 02:50:56;;;;;;;0.20;0.20;;;6.00;99.90;;;;;;5053683;28;20048;-68
2023/12/23 02:53:21;;;;;;;4.47;0.40;;;6.00;99.90;;;;;;5057140;28;20128;-68
2023/12/23 02:55:47;;;;;;;0.00;0.00;;;6.00;99.90;;;;;;5058812;28;20115;-67
2023/12/23 02:58:12;;;;;;;0.00;0.00;;;6.00;99.90;;;;;;5055950;28;20068;-69
2023/12/23 03:00:38;;;;;;;0.03;0.03;;;6.00;99.90;;;;;;5089712;28;20118;-70
2023/12/23 03:03:04;;;;;;;0.00;0.00;;;6.00;99.90;;;;;;5053990;28;20059;-70
2023/12/23 03:05:29;;;;;;;0.20;0.20;;;6.10;99.90;;;;;;5052284;28;20037;-67
2023/12/23 03:07:55;;;;;;;0.03;0.03;;;6.10;99.90;;;;;;5056768;28;20526;-69
2023/12/23 03:10:21;;;;;;;0.15;0.15;;;6.10;99.90;;;;;;5056162;28;20040;-67
2023/12/23 03:12:46;;;;;;;0.05;0.05;;;6.10;99.90;;;;;;5054829;28;20037;-69
2023/12/23 03:15:12;;;;;;;0.57;0.15;;;6.10;99.90;;;;;;5054606;28;20144;-68
2023/12/23 03:17:37;;;;;;;0.20;0.20;;;6.10;99.90;;;;;;5058932;28;20128;-67
2023/12/23 03:20:04;;;;;;;11.60;0.35;;;6.10;99.90;;;;;;5088750;28;20496;-67
2023/12/23 03:22:30;;;;;;;0.10;0.10;;;6.10;99.90;;;;;;5059654;28;20119;-69
2023/12/23 03:24:56;;;;;;;5.63;1.10;;;6.10;99.90;;;;;;5054857;28;20128;-68
2023/12/23 03:27:21;;;;;;;0.10;0.10;;;6.10;99.90;;;;;;5057021;28;20484;-67
2023/12/23 03:29:47;;;;;;;0.05;0.05;;;6.20;99.90;;;;;;5053087;28;20077;-73
2023/12/23 03:32:12;;;;;;;0.10;0.10;;;6.10;99.90;;;;;;5054504;28;20032;-67
2023/12/23 03:34:40;;;;;;;0.10;0.10;;;6.20;99.90;;;;;;5060664;28;20040;-71
2023/12/23 03:37:06;;;;;;;0.10;0.10;;;6.20;99.90;;;;;;5057390;28;20472;-71
2023/12/23 03:39:31;;;;;;;0.00;0.00;;;6.20;99.90;;;;;;5090514;28;20047;-72
2023/12/23 03:41:57;;;;;;;0.22;0.22;;;6.10;99.90;;;;;;5092621;28;20064;-67
2023/12/23 03:44:22;;;;;;;0.00;0.00;;;6.10;99.90;;;;;;5041014;28;20064;-71
2023/12/23 03:46:48;;;;;;;0.00;0.00;;;6.10;99.90;;;;;;5054895;28;20103;-71
2023/12/23 03:49:13;;;;;;;0.90;0.30;;;6.10;99.90;;;;;;5086143;28;20076;-73
2023/12/23 03:51:39;;;;;;;0.10;0.10;;;6.10;99.90;;;;;;5053971;28;20048;-73
2023/12/23 03:54:04;;;;;;;0.00;0.00;;;6.10;99.90;;;;;;5086224;28;20072;-73
2023/12/23 03:56:30;;;;;;;0.00;0.00;;;6.10;99.90;;;;;;5050329;28;20037;-73
2023/12/23 03:58:58;;;;;;;0.00;0.00;;;6.10;99.90;;;;;;5057877;28;20037;-74
2023/12/23 04:01:24;;;;;;;0.13;0.13;;;6.10;99.90;;;;;;5060589;28;20463;-71
2023/12/23 04:03:50;;;;;;;0.10;0.10;;;6.20;99.90;;;;;;5062484;28;20135;-73
2023/12/23 04:06:16;;;;;;;0.00;0.00;;;6.10;99.90;;;;;;5061286;28;20244;-72
2023/12/23 04:08:42;;;;;;;0.00;0.00;;;6.10;99.90;;;;;;5077934;28;20032;-71
2023/12/23 04:11:08;;;;;;;0.00;0.00;;;6.10;99.90;;;;;;5064781;28;20060;-71
2023/12/23 04:13:34;;;;;;;0.03;0.03;;;6.20;99.90;;;;;;5056468;28;20044;-72
2023/12/23 04:16:05;;;;;;;0.08;0.08;;;6.20;99.90;;;;;;5059243;28;20764;-71
2023/12/23 04:18:30;;;;;;;0.10;0.10;;;6.10;99.90;;;;;;5048580;28;20041;-71
2023/12/23 04:20:57;;;;;;;0.00;0.00;;;6.10;99.90;;;;;;5069416;28;20487;-72
2023/12/23 04:23:23;;;;;;;0.10;0.10;;;6.10;99.90;;;;;;5061244;28;20097;-71
2023/12/23 04:25:48;;;;;;;0.10;0.10;;;6.20;99.90;;;;;;5077823;28;20045;-71
2023/12/23 04:28:15;;;;;;;0.40;0.40;;;6.10;99.90;;;;;;5068007;28;20539;-71
2023/12/23 04:30:57;;;;;;;0.00;0.00;;;6.20;99.90;;;;;;5071936;28;20415;-70
2023/12/23 04:33:23;;;;;;;0.10;0.10;;;6.10;99.90;;;;;;5071894;28;20086;-69
2023/12/23 04:35:49;;;;;;;0.10;0.10;;;6.20;99.90;;;;;;5069923;28;20028;-69
2023/12/23 04:38:15;;;;;;;0.10;0.10;;;6.20;99.90;;;;;;5072720;28;20024;-69
2023/12/23 04:40:41;;;;;;;0.10;0.10;;;6.20;99.90;;;;;;5063572;28;20102;-69
2023/12/23 04:43:06;;;;;;;0.00;0.00;;;6.10;99.90;;;;;;5066839;28;20041;-69
2023/12/23 04:45:32;;;;;;;0.00;0.00;;;6.20;99.90;;;;;;5080560;28;20049;-69
2023/12/23 04:47:57;;;;;;;0.10;0.10;;;6.30;99.90;;;;;;5061360;28;20036;-70
2023/12/23 04:50:23;;;;;;;0.10;0.10;;;6.20;99.90;;;;;;5066594;28;20497;-70
2023/12/23 04:52:48;;;;;;;0.05;0.05;;;6.20;99.90;;;;;;5073080;28;20479;-70
2023/12/23 04:55:14;;;;;;;0.00;0.00;;;6.20;99.90;;;;;;5079144;28;20459;-70
2023/12/23 04:57:40;;;;;;;0.30;0.30;;;6.30;99.90;;;;;;5060507;28;20039;-70
2023/12/23 05:00:06;;;;;;;0.10;0.10;;;6.40;99.90;;;;;;5065979;28;20041;-68
2023/12/23 05:02:33;;;;;;;0.10;0.10;;;6.50;99.90;;;;;;5048520;28;20047;-73
2023/12/23 05:04:58;;;;;;;4.43;0.20;;;6.80;99.90;;;;;;5067230;28;20045;-71
2023/12/23 05:07:24;;;;;;;0.60;0.60;;;7.30;99.90;;;;;;5066363;28;20118;-72
2023/12/23 05:09:50;;;;;;;5.28;2.08;;;7.70;99.90;;;;;;5068106;28;20089;-72
2023/12/23 05:12:15;;;;;;;0.10;0.10;;;7.90;99.90;;;;;;5061295;28;20044;-77
2023/12/23 05:14:41;;;;;;;4.18;0.45;;;8.30;99.90;;;;;;5067762;28;20037;-72
2023/12/23 05:17:07;;;;;;;0.10;0.10;;;8.30;99.90;;;;;;5061199;28;20032;-76
2023/12/23 05:19:33;;;;;;;2.92;1.17;;;8.50;99.90;;;;;;5065566;28;20372;-73
2023/12/23 05:21:59;;;;;;;0.57;0.40;;;8.50;99.90;;;;;;5061509;28;20040;-71
2023/12/23 05:24:24;;;;;;;0.15;0.15;;;8.60;99.90;;;;;;5064088;28;20063;-70
2023/12/23 05:26:51;;;;;;;0.85;0.25;;;8.70;99.90;;;;;;5060151;28;20113;-67
2023/12/23 05:29:16;;;;;;;0.22;0.22;;;8.80;99.90;;;;;;5072840;28;20452;-69
2023/12/23 05:31:42;;;;;;;3.00;0.57;;;8.70;99.90;;;;;;5063653;28;20041;-69
2023/12/23 05:34:08;;;;;;;1.40;0.30;;;8.90;99.90;;;;;;5068879;28;20040;-75
2023/12/23 05:36:33;;;;;;;0.10;0.10;;;8.90;99.90;;;;;;5060086;28;20033;-71
2023/12/23 05:38:59;;;;;;;0.17;0.17;;;9.00;99.90;;;;;;5052314;28;20037;-66
2023/12/23 05:41:25;;;;;;;0.20;0.20;;;8.90;99.90;;;;;;5068654;28;20036;-69
2023/12/23 05:43:50;;;;;;;1.50;0.38;;;8.90;99.90;;;;;;5062699;28;20041;-73
2023/12/23 05:46:16;;;;;;;0.45;0.45;;;9.00;99.90;;;;;;5055427;28;20041;-68
2023/12/23 05:48:42;;;;;;;0.10;0.10;;;9.00;99.90;;;;;;5067673;28;20041;-70
2023/12/23 05:51:10;;;;;;;0.10;0.10;;;9.00;99.90;;;;;;5055797;28;20131;-75
2023/12/23 05:53:36;;;;;;;1.45;1.17;;;9.00;99.90;;;;;;5048976;28;20091;-69
2023/12/23 05:56:06;;;;;;;0.20;0.20;;;9.00;99.90;;;;;;5068002;28;20060;-71
2023/12/23 05:58:32;;;;;;;15.30;0.93;;;9.00;99.90;;;;;;5053107;28;20441;-70
2023/12/23 06:00:58;;;;;;;0.22;0.22;;;9.10;99.90;;;;;;5064354;28;20034;-71
2023/12/23 06:03:23;;;;;;;0.43;0.30;;;9.10;99.90;;;;;;5058182;28;20388;-69
2023/12/23 06:05:49;;;;;;;0.30;0.20;;;9.10;99.90;;;;;;5058436;28;20039;-71
2023/12/23 06:08:15;;;;;;;0.13;0.13;;;9.10;99.90;;;;;;5069625;28;20047;-69
2023/12/23 06:10:40;;;;;;;0.40;0.40;;;9.00;99.90;;;;;;5066754;28;20036;-71
2023/12/23 06:13:06;;;;;;;0.30;0.30;;;9.20;99.90;;;;;;5069725;28;20037;-73
2023/12/23 06:15:32;;;;;;;1.23;1.17;;;9.10;99.90;;;;;;5071901;28;20188;-72
2023/12/23 06:17:57;;;;;;;0.52;0.50;;;9.20;99.90;;;;;;5069270;28;20472;-72
2023/12/23 06:20:23;;;;;;;0.55;0.40;;;9.20;99.90;;;;;;5062573;28;20044;-73
2023/12/23 06:22:50;;;;;;;1.15;0.35;;;9.20;99.90;;;;;;5055832;28;20407;-71
2023/12/23 06:25:17;;;;;;;0.70;0.70;;;9.30;99.90;;;;;;5061504;28;20324;-70
2023/12/23 06:27:42;;;;;;;0.20;0.20;;;9.20;99.90;;;;;;5072550;28;20049;-69
2023/12/23 06:30:08;;;;;;;0.32;0.32;;;9.20;99.90;;;;;;5071929;28;20490;-71
2023/12/23 06:32:34;;;;;;;1.45;0.40;;;9.30;99.90;;;;;;5055419;28;20036;-72
2023/12/23 06:35:00;;;;;;;2.28;0.57;;;9.30;99.90;;;;;;5052793;28;20037;-70
2023/12/23 06:37:26;;;;;;;1.35;0.73;;;9.30;99.90;;;;;;5060664;28;20078;-68
2023/12/23 06:39:51;;;;;;;2.22;1.15;;;9.40;99.90;;;;;;5070909;28;20072;-73
2023/12/23 06:42:17;;;;;;;2.38;0.30;;;9.40;99.90;;;;;;5087128;28;20238;-71
2023/12/23 06:44:43;;;;;;;0.32;0.32;;;9.40;99.90;;;;;;5063335;28;20053;-75
2023/12/23 06:47:09;;;;;;;0.30;0.17;;;9.30;99.90;;;;;;5067007;28;20045;-73
2023/12/23 06:49:34;;;;;;;1.52;1.42;;;9.40;99.90;;;;;;5070023;28;20128;-70
2023/12/23 06:52:00;;;;;;;8.57;0.77;;;9.40;99.90;;;;;;5089773;28;20502;-76
2023/12/23 06:54:25;;;;;;;0.20;0.20;;;9.40;99.90;;;;;;5074194;28;20036;-73
2023/12/23 06:56:51;;;;;;;1.85;0.85;;;9.30;99.90;;;;;;5066201;28;20535;-70
2023/12/23 06:59:16;;;;;;;0.40;0.40;;;9.30;99.90;;;;;;5069723;28;20045;-69
2023/12/23 07:01:42;;;;;;;0.77;0.77;;;9.30;99.90;;;;;;5058822;28;20057;-70
2023/12/23 07:04:08;;;;;;;0.20;0.20;;;9.40;99.90;;;;;;5077574;28;20047;-72
2023/12/23 07:06:37;;;;;;;0.82;0.80;;;9.40;99.90;;;;;;5068056;28;20410;-71
2023/12/23 07:09:03;;;;;;;23.30;1.13;;;9.30;99.90;;;;;;5068743;28;20083;-74
2023/12/23 07:11:29;;;;;;;3.33;0.20;;;9.40;99.90;;;;;;5073394;28;20118;-74
2023/12/23 07:13:54;;;;;;;0.85;0.85;;;9.40;99.90;;;;;;5074850;28;20127;-70
2023/12/23 07:16:20;;;;;;;4.20;1.02;;;9.40;99.90;;;;;;5059187;28;20510;-71
2023/12/23 07:18:46;;;;;;;1.02;0.98;;;9.40;99.90;;;;;;5069763;28;20106;-74
2023/12/23 07:21:12;;;;;;;1.40;0.50;;;9.40;99.90;;;;;;5072513;28;20044;-75
2023/12/23 07:23:37;;;;;;;0.20;0.20;;;9.40;99.90;;;;;;5077094;28;20588;-73
2023/12/23 07:26:04;;;;;;;0.10;0.10;;;9.50;99.90;;;;;;5049534;28;20032;-69
2023/12/23 07:28:30;;;;;;;0.85;0.63;;;9.50;99.90;;;;;;5052379;28;20561;-71
2023/12/23 07:30:56;;;;;;;0.10;0.10;;;9.50;99.90;;;;;;5100601;27;20042;-68
2023/12/23 07:33:22;;;;;;;1.83;0.70;;;9.60;99.90;;;;;;5067561;28;20121;-69
2023/12/23 07:35:47;;;;;;;0.20;0.20;;;9.50;99.90;;;;;;5046664;28;20138;-72
2023/12/23 07:38:13;;;;;;;1.77;0.80;;;9.40;99.90;;;;;;5067102;28;20072;-69
2023/12/23 07:40:40;;;;;;;0.40;0.30;;;9.50;99.90;;;;;;5063491;28;20553;-71
2023/12/23 07:43:06;;;;;;;0.55;0.55;;;9.50;99.90;;;;;;5069233;28;20094;-69
2023/12/23 07:45:32;;;;;;;0.65;0.28;;;9.40;99.90;;;;;;5065378;28;20102;-74
2023/12/23 07:47:57;;;;;;;0.10;0.10;;;9.40;99.90;;;;;;5067148;28;20043;-73
2023/12/23 07:50:23;;;;;;;3.50;0.75;;;9.50;99.90;;;;;;5063109;28;20044;-75
2023/12/23 07:52:49;;;;;;;10.38;1.35;;;9.50;99.90;;;;;;5072201;28;20032;-74
2023/12/23 07:55:15;;;;;;;0.30;0.30;;;9.40;99.90;;;;;;5066119;28;20384;-71
2023/12/23 07:57:42;;;;;;;2.53;0.88;;;9.50;99.90;;;;;;5064534;28;20032;-72
2023/12/23 08:00:08;;;;;;;2.30;0.80;;;9.50;99.90;;;;;;5062875;28;20068;-71
2023/12/23 08:02:34;;;;;;;0.43;0.38;;;9.50;99.90;;;;;;5068833;28;20479;-74
2023/12/23 08:05:00;;;;;;;1.52;0.57;;;9.40;99.90;;;;;;5066815;28;20044;-70
2023/12/23 08:07:25;;;;;;;4.07;0.38;;;9.50;99.90;;;;;;5065874;28;20040;-73
2023/12/23 08:09:51;;;;;;;0.30;0.30;;;9.40;99.90;;;;;;5063952;28;20097;-73
2023/12/23 08:12:16;;;;;;;1.52;0.55;;;9.40;99.90;;;;;;5070320;28;20043;-72
2023/12/23 08:14:43;;;;;;;2.63;0.47;;;9.40;99.90;;;;;;5058774;28;20033;-71
2023/12/23 08:17:08;;;;;;;0.50;0.50;;;9.40;99.90;;;;;;5063399;28;20036;-72
2023/12/23 08:19:34;;;;;;;0.00;0.00;;;9.40;99.90;;;;;;5061847;28;20518;-75
2023/12/23 08:21:59;;;;;;;0.10;0.10;;;9.50;99.90;;;;;;5061600;28;20470;-81
2023/12/23 08:24:25;;;;;;;0.25;0.25;;;9.40;99.90;;;;;;5075842;28;20056;-71
2023/12/23 08:26:51;;;;;;;0.13;0.10;;;9.50;99.90;;;;;;5068129;28;20052;-70
2023/12/23 08:29:16;;;;;;;1.08;0.75;;;9.40;99.90;;;;;;5092304;28;20050;-74
2023/12/23 08:31:45;;;;;;;0.10;0.10;;;9.40;99.90;;;;;;5069853;28;20055;-71
2023/12/23 08:34:11;;;;;;;0.55;0.20;;;9.50;99.90;;;;;;5074482;28;20502;-70
2023/12/23 08:36:36;;;;;;;1.00;0.95;;;9.50;99.90;;;;;;5050681;28;20032;-75
2023/12/23 08:39:02;;;;;;;1.00;0.15;;;9.50;99.90;;;;;;5064019;28;20448;-76
2023/12/23 08:41:28;;;;;;;1.55;0.35;;;9.50;99.90;;;;;;5067242;28;20048;-73
2023/12/23 08:43:53;;;;;;;0.10;0.10;;;9.60;99.90;;;;;;5065458;28;20036;-71
2023/12/23 08:46:19;;;;;;;0.20;0.20;;;9.60;99.90;;;;;;5064393;28;20068;-69
2023/12/23 08:48:44;;;;;;;0.88;0.35;;;9.60;99.90;;;;;;5067987;28;20487;-71
2023/12/23 08:51:10;;;;;;;3.15;0.40;;;9.60;99.90;;;;;;5063424;28;20032;-73
2023/12/23 08:53:36;;;;;;;0.45;0.45;;;9.60;99.90;;;;;;5062751;28;20247;-69
2023/12/23 08:56:02;;;;;;;0.35;0.35;;;9.60;99.90;;;;;;5064508;28;20123;-76
2023/12/23 08:58:30;;;;;;;3.03;1.05;;;9.60;99.90;;;;;;5065557;28;20062;-77
2023/12/23 09:00:57;;;;;;;0.25;0.25;;;9.60;99.90;;;;;;5062584;28;20044;-75
2023/12/23 09:03:22;;;;;;;1.00;0.95;;;9.60;99.90;;;;;;5093402;28;20040;-75
2023/12/23 09:05:48;;;;;;;1.40;0.38;;;9.60;99.90;;;;;;5068372;28;20109;-79
2023/12/23 09:08:13;;;;;;;5.18;0.85;;;9.60;99.90;;;;;;5072751;28;20040;-75
2023/12/23 09:10:39;;;;;;;2.55;0.88;;;9.70;99.90;;;;;;5070134;28;20044;-79
2023/12/23 09:13:07;;;;;;;0.40;0.40;;;9.60;99.90;;;;;;5066201;28;20111;-75
2023/12/23 09:15:32;;;;;;;4.47;0.45;;;9.60;99.90;;;;;;5067688;28;20039;-75
2023/12/23 09:17:58;;;;;;;1.08;0.93;;;9.60;99.90;;;;;;5076438;28;20450;-73
2023/12/23 09:20:23;;;;;;;2.55;0.50;;;9.60;99.90;;;;;;5080981;28;20036;-76
2023/12/23 09:22:49;;;;;;;6.45;0.95;;;9.60;99.90;;;;;;5095447;28;20049;-77
2023/12/23 09:25:14;;;;;;;0.77;0.20;;;9.60;99.90;;;;;;5068212;28;20079;-78
2023/12/23 09:27:40;;;;;;;0.10;0.10;;;9.60;99.90;;;;;;5073644;28;20045;-74
2023/12/23 09:30:06;;;;;;;2.60;0.52;;;9.70;99.90;;;;;;5069771;28;20037;-78
2023/12/23 09:32:32;;;;;;;0.65;0.65;;;9.80;99.90;;;;;;5064357;28;20036;-76
2023/12/23 09:34:57;;;;;;;2.45;0.10;;;9.90;99.90;;;;;;5082462;28;20042;-73
2023/12/23 09:37:23;;;;;;;1.00;0.90;;;9.90;99.90;;;;;;5065704;28;20082;-78
2023/12/23 09:39:48;;;;;;;5.10;0.73;;;10.00;99.90;;;;;;5074114;28;20052;-74
2023/12/23 09:42:14;;;;;;;0.45;0.20;;;10.00;99.90;;;;;;5071160;28;20060;-79
2023/12/23 09:44:40;;;;;;;0.05;0.05;;;10.00;99.90;;;;;;5054885;28;20491;-78
2023/12/23 09:47:07;;;;;;;0.22;0.22;;;10.00;99.90;;;;;;5053694;28;20040;-79
2023/12/23 09:49:33;;;;;;;1.08;0.30;;;10.00;99.90;;;;;;5067129;28;20373;-76
2023/12/23 09:51:59;;;;;;;3.83;0.55;;;10.00;99.90;;;;;;5070530;28;20039;-80
2023/12/23 09:54:30;;;;;;;0.08;0.08;;;10.00;99.90;;;;;;5071843;28;20067;-76
2023/12/23 09:56:55;;;;;;;25.38;1.13;;;10.00;99.90;;;;;;5072271;28;20043;-75
2023/12/23 09:59:23;;;;;;;0.35;0.35;;;10.00;99.90;;;;;;5071273;28;20487;-77
2023/12/23 10:01:48;;;;;;;0.75;0.20;;;10.00;99.90;;;;;;5068842;28;20032;-75
2023/12/23 10:04:14;;;;;;;1.10;0.30;;;10.00;99.90;;;;;;5063397;28;20044;-77
2023/12/23 10:06:40;;;;;;;1.27;0.77;;;10.00;99.90;;;;;;5071043;28;20063;-78
2023/12/23 10:09:05;;;;;;;0.38;0.38;;;10.10;99.90;;;;;;5071774;28;20041;-80
2023/12/23 10:11:31;;;;;;;4.43;0.70;;;10.10;99.90;;;;;;5071469;28;20028;-78
2023/12/23 10:13:56;;;;;;;0.10;0.10;;;10.00;99.90;;;;;;5065312;28;20041;-76
2023/12/23 10:16:22;;;;;;;0.45;0.45;;;10.10;99.90;;;;;;5067217;28;20036;-74
2023/12/23 10:18:48;;;;;;;1.38;1.27;;;10.10;99.90;;;;;;5070115;28;20040;-75
2023/12/23 10:21:14;;;;;;;0.65;0.63;;;10.10;99.90;;;;;;5067589;28;20107;-81
2023/12/23 10:23:40;;;;;;;0.20;0.20;;;10.10;99.90;;;;;;5069646;28;20037;-76
2023/12/23 10:26:08;;;;;;;0.68;0.47;;;10.10;99.90;;;;;;5056590;28;20449;-75
2023/12/23 10:28:36;;;;;;;0.08;0.08;;;10.10;99.90;;;;;;5067175;28;20041;-77
2023/12/23 10:31:02;;;;;;;24.55;1.55;;;10.10;99.90;;;;;;5066640;28;20483;-78
2023/12/23 10:33:32;;;;;;;3.40;0.40;;;10.10;99.90;;;;;;5057242;28;20051;-74
2023/12/23 10:35:58;;;;;;;0.10;0.10;;;10.10;99.90;;;;;;5068536;28;20115;-79
2023/12/23 10:38:26;;;;;;;9.38;0.82;;;10.10;99.90;;;;;;5075860;28;20044;-76
2023/12/23 10:40:58;;;;;;;0.32;0.10;;;10.10;99.90;;;;;;5062875;28;20040;-81
2023/12/23 10:43:25;;;;;;;17.10;0.60;;;10.10;99.90;;;;;;5066120;28;20075;-75
2023/12/23 10:45:51;;;;;;;0.13;0.13;;;10.10;99.90;;;;;;5066443;28;20487;-77
2023/12/23 10:48:19;;;;;;;0.57;0.38;;;10.10;99.90;;;;;;5067660;28;20109;-74
2023/12/23 10:50:47;;;;;;;0.10;0.10;;;10.00;99.90;;;;;;5065198;28;20090;-68
2023/12/23 10:53:16;;;;;;;0.30;0.30;;;10.00;99.90;;;;;;5069580;28;20445;-72
2023/12/23 10:55:43;;;;;;;10.77;1.10;;;9.90;99.90;;;;;;5064185;28;20044;-79
2023/12/23 10:58:09;;;;;;;16.38;1.15;;;9.90;99.90;;;;;;5067083;28;20391;-78
2023/12/23 11:00:36;;;;;;;0.15;0.15;;;9.90;99.90;;;;;;5064772;28;20372;-78
2023/12/23 11:03:03;;;;;;;0.10;0.10;;;10.00;99.90;;;;;;5064614;28;20079;-74
2023/12/23 11:05:31;;;;;;;1.85;0.43;;;10.00;99.90;;;;;;5066703;28;20123;-77
2023/12/23 11:07:59;;;;;;;3.15;0.45;;;10.00;99.90;;;;;;5068289;28;20036;-79
2023/12/23 11:10:28;;;;;;;0.60;0.60;;;10.00;99.90;;;;;;5067537;28;20127;-78
2023/12/23 11:12:55;;;;;;;0.25;0.25;;;10.00;99.90;;;;;;5068366;28;20028;-74
2023/12/23 11:15:20;;;;;;;2.05;1.95;;;10.00;99.90;;;;;;5050186;28;20150;-81
2023/12/23 11:17:46;;;;;;;2.72;0.63;;;10.10;99.90;;;;;;5071241;28;20036;-80
2023/12/23 11:20:36;;;;;;;0.20;0.20;;;10.10;99.90;;;;;;5057640;28;20532;-79
2023/12/23 11:23:28;;;;;;;8.77;0.52;;;10.10;99.90;;;;;;5066583;28;20041;-74
2023/12/23 11:25:54;;;;;;;1.00;1.00;;;10.10;99.90;;;;;;5089907;28;20459;-75
2023/12/23 11:28:21;;;;;;;0.17;0.17;;;10.10;99.90;;;;;;5074167;28;20036;-80
2023/12/23 11:30:47;;;;;;;3.42;0.30;;;10.10;99.90;;;;;;5057059;28;20090;-78
2023/12/23 11:33:14;;;;;;;6.05;2.63;;;10.20;99.90;;;;;;5065961;28;20043;-79
2023/12/23 11:35:51;;;;;;;0.85;0.85;;;10.20;99.90;;;;;;5066342;28;20051;-80
2023/12/23 11:38:17;;;;;;;0.28;0.28;;;10.20;99.90;;;;;;5064051;28;20190;-79
2023/12/23 11:40:43;;;;;;;0.90;0.35;;;10.20;99.90;;;;;;5069211;28;20057;-77
2023/12/23 11:43:08;;;;;;;6.22;0.85;;;10.30;99.90;;;;;;5065015;28;20032;-82
2023/12/23 11:45:38;;;;;;;6.03;0.77;;;10.30;99.90;;;;;;5068570;28;20607;-82
2023/12/23 11:48:09;;;;;;;0.28;0.28;;;10.30;99.90;;;;;;5062077;28;20055;-76
2023/12/23 11:50:35;;;;;;;0.17;0.17;;;10.30;99.90;;;;;;5062815;28;20048;-81
2023/12/23 11:53:01;;;;;;;3.00;0.47;;;10.40;99.90;;;;;;5069309;28;20044;-76
2023/12/23 11:55:26;;;;;;;0.10;0.10;;;10.50;99.90;;;;;;5049411;28;20033;-77
2023/12/23 11:57:52;;;;;;;0.30;0.30;;;10.40;99.90;;;;;;5069766;28;20036;-78
2023/12/23 12:00:18;;;;;;;0.30;0.30;;;10.40;99.90;;;;;;5064327;28;20089;-81
2023/12/23 12:02:44;;;;;;;0.90;0.57;;;10.50;99.90;;;;;;5065642;28;20044;-77
2023/12/23 12:05:10;;;;;;;0.65;0.20;;;10.50;99.90;;;;;;5063932;28;20503;-76
2023/12/23 12:07:37;;;;;;;0.25;0.25;;;10.50;99.90;;;;;;5077966;28;20299;-71
2023/12/23 12:10:03;;;;;;;0.10;0.10;;;10.50;99.90;;;;;;5059213;28;20044;-74
2023/12/23 12:12:28;;;;;;;0.10;0.10;;;10.60;99.90;;;;;;5062617;28;20032;-75
2023/12/23 12:14:57;;;;;;;0.63;0.20;;;10.60;99.90;;;;;;5065864;28;20082;-73
2023/12/23 12:17:24;;;;;;;2.83;0.32;;;10.50;99.90;;;;;;5075863;28;20036;-77
2023/12/23 12:19:50;;;;;;;9.00;0.32;;;10.50;99.90;;;;;;5064864;28;20490;-76
2023/12/23 12:22:15;;;;;;;0.30;0.13;;;10.50;99.90;;;;;;5064904;28;20039;-77
2023/12/23 12:24:42;;;;;;;0.30;0.30;;;10.50;99.90;;;;;;5067185;28;20131;-79
2023/12/23 12:27:08;;;;;;;1.45;0.80;;;10.50;99.90;;;;;;5066449;28;20392;-76
2023/12/23 12:29:33;;;;;;;0.98;0.30;;;10.60;99.90;;;;;;5068503;28;20040;-76
2023/12/23 12:32:00;;;;;;;1.13;0.55;;;10.60;99.90;;;;;;5065163;28;20402;-74
2023/12/23 12:34:27;;;;;;;0.57;0.45;;;10.50;99.90;;;;;;5064906;28;20040;-75
2023/12/23 12:36:53;;;;;;;0.98;0.60;;;10.60;99.90;;;;;;5064746;28;20035;-75
2023/12/23 12:39:20;;;;;;;4.47;0.63;;;10.50;99.90;;;;;;5061004;28;20033;-78
2023/12/23 12:41:48;;;;;;;3.25;0.32;;;10.60;99.90;;;;;;5064534;28;20071;-75
2023/12/23 12:44:13;;;;;;;1.45;0.70;;;10.50;99.90;;;;;;5053783;28;20102;-80
2023/12/23 12:46:39;;;;;;;4.40;0.60;;;10.50;99.90;;;;;;5067020;28;20491;-73
2023/12/23 12:49:07;;;;;;;0.10;0.10;;;10.50;99.90;;;;;;5051054;28;20111;-71